sensor_id;sensor_type;location;lat;lon;timestamp;pressure;altitude;pressure_sealevel;temperature;humidity
49835;BME280;35729;52.090;13.162;2023-04-22T00:01:52;100890.66;;;11.52;52.15
49835;BME280;35729;52.090;13.162;2023-04-22T00:04:21;100889.84;;;11.48;52.34
49835;BME280;35729;52.090;13.162;2023-04-22T00:06:49;100893.44;;;11.44;52.32
49835;BME280;35729;52.090;13.162;2023-04-22T00:09:18;100887.34;;;11.42;52.47
49835;BME280;35729;52.090;13.162;2023-04-22T00:11:46;100885.69;;;11.38;52.63
49835;BME280;35729;52.090;13.162;2023-04-22T00:14:15;100877.97;;;11.32;52.67
49835;BME280;35729;52.090;13.162;2023-04-22T00:16:46;100884.09;;;11.32;52.83
49835;BME280;35729;52.090;13.162;2023-04-22T00:19:14;100881.56;;;11.28;52.94
49835;BME280;35729;52.090;13.162;2023-04-22T00:21:43;100877.28;;;11.23;52.94
49835;BME280;35729;52.090;13.162;2023-04-22T00:24:11;100876.44;;;11.21;53.09
49835;BME280;35729;52.090;13.162;2023-04-22T00:26:40;100871.28;;;11.17;53.13
49835;BME280;35729;52.090;13.162;2023-04-22T00:29:08;100865.22;;;11.13;53.23
49835;BME280;35729;52.090;13.162;2023-04-22T00:31:37;100866.22;;;11.09;53.36
49835;BME280;35729;52.090;13.162;2023-04-22T00:34:08;100868.91;;;11.04;53.47
49835;BME280;35729;52.090;13.162;2023-04-22T00:36:36;100864.59;;;11.02;53.66
49835;BME280;35729;52.090;13.162;2023-04-22T00:39:05;100863.84;;;10.98;53.75
49835;BME280;35729;52.090;13.162;2023-04-22T00:41:34;100868.28;;;10.95;53.87
49835;BME280;35729;52.090;13.162;2023-04-22T00:44:03;100856.16;;;10.87;53.95
49835;BME280;35729;52.090;13.162;2023-04-22T00:46:33;100857.94;;;10.87;54.00
49835;BME280;35729;52.090;13.162;2023-04-22T00:49:01;100859.75;;;10.83;54.09
49835;BME280;35729;52.090;13.162;2023-04-22T00:51:33;100859.81;;;10.80;54.19
49835;BME280;35729;52.090;13.162;2023-04-22T00:54:01;100852.00;;;10.77;54.30
49835;BME280;35729;52.090;13.162;2023-04-22T00:56:32;100850.38;;;10.73;54.56
49835;BME280;35729;52.090;13.162;2023-04-22T00:59:02;100853.91;;;10.69;54.50
49835;BME280;35729;52.090;13.162;2023-04-22T01:01:32;100853.09;;;10.67;54.62
49835;BME280;35729;52.090;13.162;2023-04-22T01:04:00;100848.78;;;10.63;54.85
49835;BME280;35729;52.090;13.162;2023-04-22T01:06:34;100841.00;;;10.59;54.83
49835;BME280;35729;52.090;13.162;2023-04-22T01:09:03;100841.94;;;10.57;54.97
49835;BME280;35729;52.090;13.162;2023-04-22T01:11:32;100843.75;;;10.53;55.00
49835;BME280;35729;52.090;13.162;2023-04-22T01:14:01;100835.94;;;10.50;55.24
49835;BME280;35729;52.090;13.162;2023-04-22T01:16:30;100836.88;;;10.46;55.48
49835;BME280;35729;52.090;13.162;2023-04-22T01:19:00;100832.59;;;10.42;55.53
49835;BME280;35729;52.090;13.162;2023-04-22T01:21:29;100834.38;;;10.40;55.67
49835;BME280;35729;52.090;13.162;2023-04-22T01:24:00;100837.97;;;10.36;55.74
49835;BME280;35729;52.090;13.162;2023-04-22T01:26:29;100833.59;;;10.33;55.82
49835;BME280;35729;52.090;13.162;2023-04-22T01:28:58;100826.75;;;10.27;55.92
49835;BME280;35729;52.090;13.162;2023-04-22T01:31:30;100830.25;;;10.26;56.06
49835;BME280;35729;52.090;13.162;2023-04-22T01:33:58;100826.00;;;10.19;56.09
49835;BME280;35729;52.090;13.162;2023-04-22T01:36:27;100822.53;;;10.17;56.21
49835;BME280;35729;52.090;13.162;2023-04-22T01:39:00;100834.84;;;10.15;56.24
49835;BME280;35729;52.090;13.162;2023-04-22T01:41:28;100830.53;;;10.11;56.35
49835;BME280;35729;52.090;13.162;2023-04-22T01:43:59;100826.22;;;10.08;56.50
49835;BME280;35729;52.090;13.162;2023-04-22T01:46:30;100817.56;;;10.03;56.60
49835;BME280;35729;52.090;13.162;2023-04-22T01:49:00;100816.78;;;10.00;56.74
49835;BME280;35729;52.090;13.162;2023-04-22T01:51:28;100819.44;;;9.97;56.75
49835;BME280;35729;52.090;13.162;2023-04-22T01:54:00;100825.59;;;9.94;57.00
49835;BME280;35729;52.090;13.162;2023-04-22T01:56:28;100821.31;;;9.90;57.02
49835;BME280;35729;52.090;13.162;2023-04-22T01:58:57;100816.09;;;9.87;57.26
49835;BME280;35729;52.090;13.162;2023-04-22T02:01:25;100813.53;;;9.84;57.21
49835;BME280;35729;52.090;13.162;2023-04-22T02:03:54;100819.72;;;9.81;57.46
49835;BME280;35729;52.090;13.162;2023-04-22T02:06:22;100813.69;;;9.76;57.51
49835;BME280;35729;52.090;13.162;2023-04-22T02:08:51;100806.75;;;9.73;57.63
49835;BME280;35729;52.090;13.162;2023-04-22T02:11:23;100817.25;;;9.70;57.82
49835;BME280;35729;52.090;13.162;2023-04-22T02:13:51;100809.47;;;9.67;57.84
49835;BME280;35729;52.090;13.162;2023-04-22T02:16:19;100801.63;;;9.64;58.02
49835;BME280;35729;52.090;13.162;2023-04-22T02:18:48;100806.09;;;9.60;58.37
49835;BME280;35729;52.090;13.162;2023-04-22T02:21:17;100799.16;;;9.56;58.41
49835;BME280;35729;52.090;13.162;2023-04-22T02:23:45;100802.75;;;9.51;58.68
49835;BME280;35729;52.090;13.162;2023-04-22T02:26:14;100797.56;;;9.46;58.87
49835;BME280;35729;52.090;13.162;2023-04-22T02:28:45;100801.16;;;9.42;59.11
49835;BME280;35729;52.090;13.162;2023-04-22T02:31:13;100801.22;;;9.37;59.30
49835;BME280;35729;52.090;13.162;2023-04-22T02:33:42;100803.00;;;9.34;59.39
49835;BME280;35729;52.090;13.162;2023-04-22T02:36:10;100800.47;;;9.29;59.59
49835;BME280;35729;52.090;13.162;2023-04-22T02:38:39;100798.78;;;9.25;59.75
49835;BME280;35729;52.090;13.162;2023-04-22T02:41:13;100788.41;;;9.20;59.81
49835;BME280;35729;52.090;13.162;2023-04-22T02:43:45;100793.66;;;9.17;60.00
49835;BME280;35729;52.090;13.162;2023-04-22T02:46:13;100785.91;;;9.12;59.96
49835;BME280;35729;52.090;13.162;2023-04-22T02:48:43;100785.94;;;9.09;60.24
49835;BME280;35729;52.090;13.162;2023-04-22T02:51:11;100785.09;;;9.06;60.37
49835;BME280;35729;52.090;13.162;2023-04-22T02:53:40;100784.31;;;9.01;60.34
49835;BME280;35729;52.090;13.162;2023-04-22T02:56:09;100781.78;;;8.96;60.67
49835;BME280;35729;52.090;13.162;2023-04-22T02:58:37;100783.56;;;8.92;60.76
49835;BME280;35729;52.090;13.162;2023-04-22T03:01:08;100781.84;;;8.88;60.80
49835;BME280;35729;52.090;13.162;2023-04-22T03:03:37;100786.28;;;8.83;61.17
49835;BME280;35729;52.090;13.162;2023-04-22T03:06:05;100782.84;;;8.79;61.32
49835;BME280;35729;52.090;13.162;2023-04-22T03:08:34;100784.69;;;8.76;61.65
49835;BME280;35729;52.090;13.162;2023-04-22T03:11:03;100776.88;;;8.71;61.88
49835;BME280;35729;52.090;13.162;2023-04-22T03:13:32;100777.81;;;8.66;62.13
49835;BME280;35729;52.090;13.162;2023-04-22T03:16:00;100784.84;;;8.60;62.04
49835;BME280;35729;52.090;13.162;2023-04-22T03:18:31;100776.19;;;8.55;62.43
49835;BME280;35729;52.090;13.162;2023-04-22T03:21:00;100771.94;;;8.50;62.41
49835;BME280;35729;52.090;13.162;2023-04-22T03:23:28;100771.09;;;8.44;62.67
49835;BME280;35729;52.090;13.162;2023-04-22T03:25:58;100764.19;;;8.39;62.95
49835;BME280;35729;52.090;13.162;2023-04-22T03:28:26;100774.69;;;8.32;63.22
49835;BME280;35729;52.090;13.162;2023-04-22T03:30:55;100769.53;;;8.26;63.44
49835;BME280;35729;52.090;13.162;2023-04-22T03:33:23;100773.09;;;8.22;63.42
49835;BME280;35729;52.090;13.162;2023-04-22T03:35:54;100769.66;;;8.17;63.63
49835;BME280;35729;52.090;13.162;2023-04-22T03:38:23;100772.34;;;8.11;63.98
49835;BME280;35729;52.090;13.162;2023-04-22T03:40:52;100772.41;;;8.06;64.21
49835;BME280;35729;52.090;13.162;2023-04-22T03:43:20;100775.91;;;8.02;64.24
49835;BME280;35729;52.090;13.162;2023-04-22T03:45:50;100773.38;;;7.94;64.65
49835;BME280;35729;52.090;13.162;2023-04-22T03:48:18;100775.19;;;7.89;64.67
49835;BME280;35729;52.090;13.162;2023-04-22T03:50:47;100778.72;;;7.85;64.86
49835;BME280;35729;52.090;13.162;2023-04-22T03:53:18;100778.75;;;7.80;65.13
49835;BME280;35729;52.090;13.162;2023-04-22T03:55:47;100774.44;;;7.76;65.04
49835;BME280;35729;52.090;13.162;2023-04-22T03:58:15;100776.22;;;7.73;65.29
49835;BME280;35729;52.090;13.162;2023-04-22T04:00:43;100777.13;;;7.69;65.43
49835;BME280;35729;52.090;13.162;2023-04-22T04:03:12;100777.16;;;7.65;65.53
49835;BME280;35729;52.090;13.162;2023-04-22T04:05:40;100775.44;;;7.61;65.81
49835;BME280;35729;52.090;13.162;2023-04-22T04:08:09;100780.72;;;7.58;65.98
49835;BME280;35729;52.090;13.162;2023-04-22T04:10:41;100773.75;;;7.54;66.16
49835;BME280;35729;52.090;13.162;2023-04-22T04:13:09;100774.66;;;7.52;66.24
49835;BME280;35729;52.090;13.162;2023-04-22T04:15:37;100772.94;;;7.49;66.38
49835;BME280;35729;52.090;13.162;2023-04-22T04:18:06;100770.38;;;7.46;66.47
49835;BME280;35729;52.090;13.162;2023-04-22T04:20:36;100773.00;;;7.43;66.38
49835;BME280;35729;52.090;13.162;2023-04-22T04:23:04;100771.28;;;7.40;66.52
49835;BME280;35729;52.090;13.162;2023-04-22T04:25:32;100763.47;;;7.37;66.63
49835;BME280;35729;52.090;13.162;2023-04-22T04:28:06;100766.09;;;7.34;66.89
49835;BME280;35729;52.090;13.162;2023-04-22T04:30:36;100770.47;;;7.33;66.89
49835;BME280;35729;52.090;13.162;2023-04-22T04:33:06;100775.72;;;7.30;67.24
49835;BME280;35729;52.090;13.162;2023-04-22T04:35:36;100776.59;;;7.29;67.07
49835;BME280;35729;52.090;13.162;2023-04-22T04:38:06;100779.19;;;7.28;67.34
49835;BME280;35729;52.090;13.162;2023-04-22T04:40:34;100772.25;;;7.25;67.57
49835;BME280;35729;52.090;13.162;2023-04-22T04:43:02;100780.97;;;7.23;67.63
49835;BME280;35729;52.090;13.162;2023-04-22T04:45:35;100776.66;;;7.20;67.52
49835;BME280;35729;52.090;13.162;2023-04-22T04:48:04;100781.03;;;7.18;67.87
49835;BME280;35729;52.090;13.162;2023-04-22T04:50:33;100783.63;;;7.18;67.74
49835;BME280;35729;52.090;13.162;2023-04-22T04:53:02;100769.72;;;7.17;67.97
49835;BME280;35729;52.090;13.162;2023-04-22T04:55:31;100774.03;;;7.20;67.76
49835;BME280;35729;52.090;13.162;2023-04-22T04:58:00;100771.44;;;7.22;68.03
49835;BME280;35729;52.090;13.162;2023-04-22T05:00:28;100765.34;;;7.21;67.92
49835;BME280;35729;52.090;13.162;2023-04-22T05:02:59;100768.78;;;7.25;67.94
49835;BME280;35729;52.090;13.162;2023-04-22T05:05:28;100767.03;;;7.28;67.78
49835;BME280;35729;52.090;13.162;2023-04-22T05:07:56;100774.84;;;7.30;67.99
49835;BME280;35729;52.090;13.162;2023-04-22T05:10:25;100777.41;;;7.34;67.81
49835;BME280;35729;52.090;13.162;2023-04-22T05:12:53;100779.97;;;7.39;67.96
49835;BME280;35729;52.090;13.162;2023-04-22T05:15:22;100774.72;;;7.44;67.78
49835;BME280;35729;52.090;13.162;2023-04-22T05:17:50;100777.31;;;7.48;67.79
49835;BME280;35729;52.090;13.162;2023-04-22T05:20:21;100773.78;;;7.53;67.72
49835;BME280;35729;52.090;13.162;2023-04-22T05:22:50;100777.19;;;7.59;67.59
49835;BME280;35729;52.090;13.162;2023-04-22T05:25:18;100786.75;;;7.65;67.48
49835;BME280;35729;52.090;13.162;2023-04-22T05:27:53;100784.94;;;7.72;67.61
49835;BME280;35729;52.090;13.162;2023-04-22T05:30:21;100781.41;;;7.77;67.27
49835;BME280;35729;52.090;13.162;2023-04-22T05:32:49;100776.13;;;7.83;67.14
49835;BME280;35729;52.090;13.162;2023-04-22T05:35:20;100771.69;;;7.90;67.07
49835;BME280;35729;52.090;13.162;2023-04-22T05:37:49;100771.63;;;7.98;67.02
49835;BME280;35729;52.090;13.162;2023-04-22T05:40:17;100776.75;;;8.06;66.96
49835;BME280;35729;52.090;13.162;2023-04-22T05:42:46;100782.78;;;8.14;66.67
49835;BME280;35729;52.090;13.162;2023-04-22T05:45:14;100780.94;;;8.21;66.72
49835;BME280;35729;52.090;13.162;2023-04-22T05:47:43;100784.31;;;8.29;66.60
49835;BME280;35729;52.090;13.162;2023-04-22T05:50:11;100781.66;;;8.37;66.81
49835;BME280;35729;52.090;13.162;2023-04-22T05:52:42;100782.41;;;8.46;66.51
49835;BME280;35729;52.090;13.162;2023-04-22T05:55:11;100792.78;;;8.56;66.33
49835;BME280;35729;52.090;13.162;2023-04-22T05:57:39;100792.66;;;8.65;66.35
49835;BME280;35729;52.090;13.162;2023-04-22T06:00:09;100799.50;;;8.74;65.99
49835;BME280;35729;52.090;13.162;2023-04-22T06:02:37;100799.41;;;8.82;65.85
49835;BME280;35729;52.090;13.162;2023-04-22T06:05:06;100798.41;;;8.90;65.83
49835;BME280;35729;52.090;13.162;2023-04-22T06:07:35;100795.69;;;8.98;65.72
49835;BME280;35729;52.090;13.162;2023-04-22T06:10:07;100795.56;;;9.06;65.70
49835;BME280;35729;52.090;13.162;2023-04-22T06:12:36;100788.47;;;9.14;65.63
49835;BME280;35729;52.090;13.162;2023-04-22T06:15:06;100792.72;;;9.23;65.39
49835;BME280;35729;52.090;13.162;2023-04-22T06:17:35;100800.41;;;9.32;65.51
49835;BME280;35729;52.090;13.162;2023-04-22T06:20:05;100795.06;;;9.40;65.32
49835;BME280;35729;52.090;13.162;2023-04-22T06:22:34;100800.16;;;9.48;65.18
49835;BME280;35729;52.090;13.162;2023-04-22T06:25:06;100799.16;;;9.56;65.13
49835;BME280;35729;52.090;13.162;2023-04-22T06:27:34;100795.53;;;9.64;65.17
49835;BME280;35729;52.090;13.162;2023-04-22T06:30:04;100792.78;;;9.71;64.79
49835;BME280;35729;52.090;13.162;2023-04-22T06:32:32;100788.28;;;9.80;64.92
49835;BME280;35729;52.090;13.162;2023-04-22T06:35:00;100784.66;;;9.88;64.84
49835;BME280;35729;52.090;13.162;2023-04-22T06:37:29;100787.97;;;9.97;64.79
49835;BME280;35729;52.090;13.162;2023-04-22T06:39:57;100786.09;;;10.05;64.70
49835;BME280;35729;52.090;13.162;2023-04-22T06:42:28;100789.41;;;10.13;64.47
49835;BME280;35729;52.090;13.162;2023-04-22T06:44:57;100793.56;;;10.23;64.19
49835;BME280;35729;52.090;13.162;2023-04-22T06:47:25;100789.06;;;10.32;64.19
49835;BME280;35729;52.090;13.162;2023-04-22T06:49:54;100788.03;;;10.40;63.71
49835;BME280;35729;52.090;13.162;2023-04-22T06:52:22;100790.44;;;10.51;63.68
49835;BME280;35729;52.090;13.162;2023-04-22T06:54:51;100792.00;;;10.62;63.44
49835;BME280;35729;52.090;13.162;2023-04-22T06:57:19;100797.03;;;10.71;63.30
49835;BME280;35729;52.090;13.162;2023-04-22T06:59:50;100785.41;;;10.83;63.15
49835;BME280;35729;52.090;13.162;2023-04-22T07:02:18;100793.03;;;10.94;62.79
49835;BME280;35729;52.090;13.162;2023-04-22T07:04:47;100784.06;;;11.04;62.67
49835;BME280;35729;52.090;13.162;2023-04-22T07:07:15;100789.06;;;11.15;62.67
49835;BME280;35729;52.090;13.162;2023-04-22T07:09:44;100783.56;;;11.25;62.50
49835;BME280;35729;52.090;13.162;2023-04-22T07:12:12;100778.91;;;11.37;62.31
49835;BME280;35729;52.090;13.162;2023-04-22T07:14:42;100776.88;;;11.48;62.00
49835;BME280;35729;52.090;13.162;2023-04-22T07:17:13;100775.72;;;11.60;61.90
49835;BME280;35729;52.090;13.162;2023-04-22T07:19:43;100778.00;;;11.72;61.83
49835;BME280;35729;52.090;13.162;2023-04-22T07:22:12;100773.47;;;11.79;61.62
49835;BME280;35729;52.090;13.162;2023-04-22T07:24:40;100769.56;;;11.96;61.30
49835;BME280;35729;52.090;13.162;2023-04-22T07:27:09;100769.25;;;12.06;61.05
49835;BME280;35729;52.090;13.162;2023-04-22T07:29:37;100769.75;;;12.19;60.88
49835;BME280;35729;52.090;13.162;2023-04-22T07:32:05;100761.53;;;12.32;60.75
49835;BME280;35729;52.090;13.162;2023-04-22T07:34:37;100765.53;;;12.45;60.77
49835;BME280;35729;52.090;13.162;2023-04-22T07:37:05;100760.78;;;12.58;60.31
49835;BME280;35729;52.090;13.162;2023-04-22T07:39:34;100763.00;;;12.72;59.81
49835;BME280;35729;52.090;13.162;2023-04-22T07:42:08;100761.66;;;12.87;59.41
49835;BME280;35729;52.090;13.162;2023-04-22T07:44:37;100761.22;;;13.01;59.03
49835;BME280;35729;52.090;13.162;2023-04-22T07:47:05;100759.94;;;13.14;58.72
49835;BME280;35729;52.090;13.162;2023-04-22T07:49:37;100755.13;;;13.27;58.28
49835;BME280;35729;52.090;13.162;2023-04-22T07:52:07;100746.78;;;13.41;58.24
49835;BME280;35729;52.090;13.162;2023-04-22T07:54:36;100741.06;;;13.55;57.95
49835;BME280;35729;52.090;13.162;2023-04-22T07:57:04;100738.00;;;13.67;57.22
49835;BME280;35729;52.090;13.162;2023-04-22T07:59:33;100736.56;;;13.84;56.01
49835;BME280;35729;52.090;13.162;2023-04-22T08:02:01;100736.00;;;13.99;54.99
49835;BME280;35729;52.090;13.162;2023-04-22T08:04:29;100739.72;;;14.17;54.06
49835;BME280;35729;52.090;13.162;2023-04-22T08:07:00;100740.88;;;14.34;53.14
49835;BME280;35729;52.090;13.162;2023-04-22T08:09:29;100728.94;;;14.47;52.72
49835;BME280;35729;52.090;13.162;2023-04-22T08:11:57;100730.97;;;14.64;52.37
49835;BME280;35729;52.090;13.162;2023-04-22T08:14:27;100728.72;;;14.77;52.46
49835;BME280;35729;52.090;13.162;2023-04-22T08:16:56;100725.63;;;14.88;51.98
49835;BME280;35729;52.090;13.162;2023-04-22T08:19:24;100713.72;;;15.00;51.78
49835;BME280;35729;52.090;13.162;2023-04-22T08:21:52;100722.00;;;15.13;50.90
49835;BME280;35729;52.090;13.162;2023-04-22T08:24:25;100722.34;;;15.26;50.89
49835;BME280;35729;52.090;13.162;2023-04-22T08:26:53;100730.69;;;15.37;50.36
49835;BME280;35729;52.090;13.162;2023-04-22T08:29:21;100735.41;;;15.51;49.59
49835;BME280;35729;52.090;13.162;2023-04-22T08:31:50;100729.59;;;15.63;49.08
49835;BME280;35729;52.090;13.162;2023-04-22T08:34:18;100727.34;;;15.75;48.94
49835;BME280;35729;52.090;13.162;2023-04-22T08:36:47;100720.66;;;15.87;48.78
49835;BME280;35729;52.090;13.162;2023-04-22T08:39:15;100718.56;;;15.95;48.79
49835;BME280;35729;52.090;13.162;2023-04-22T08:41:46;100719.84;;;16.05;48.24
49835;BME280;35729;52.090;13.162;2023-04-22T08:44:16;100722.00;;;16.16;47.74
49835;BME280;35729;52.090;13.162;2023-04-22T08:46:45;100718.06;;;16.25;47.72
49835;BME280;35729;52.090;13.162;2023-04-22T08:49:14;100714.88;;;16.37;47.68
49835;BME280;35729;52.090;13.162;2023-04-22T08:51:43;100714.44;;;16.47;47.16
49835;BME280;35729;52.090;13.162;2023-04-22T08:54:11;100712.28;;;16.55;46.93
49835;BME280;35729;52.090;13.162;2023-04-22T08:56:42;100707.44;;;16.65;46.34
49835;BME280;35729;52.090;13.162;2023-04-22T08:59:14;100708.53;;;16.78;44.71
49835;BME280;35729;52.090;13.162;2023-04-22T09:01:44;100708.03;;;16.89;44.87
49835;BME280;35729;52.090;13.162;2023-04-22T09:04:15;100697.78;;;17.00;44.64
49835;BME280;35729;52.090;13.162;2023-04-22T09:06:45;100695.59;;;17.08;43.77
49835;BME280;35729;52.090;13.162;2023-04-22T09:09:14;100698.75;;;17.17;43.63
49835;BME280;35729;52.090;13.162;2023-04-22T09:11:42;100692.03;;;17.27;43.52
49835;BME280;35729;52.090;13.162;2023-04-22T09:14:13;100693.38;;;17.36;43.03
49835;BME280;35729;52.090;13.162;2023-04-22T09:16:46;100694.59;;;17.46;42.54
49835;BME280;35729;52.090;13.162;2023-04-22T09:19:15;100690.53;;;17.56;42.60
49835;BME280;35729;52.090;13.162;2023-04-22T09:21:43;100688.34;;;17.65;41.96
49835;BME280;35729;52.090;13.162;2023-04-22T09:24:12;100682.63;;;17.72;42.14
49835;BME280;35729;52.090;13.162;2023-04-22T09:26:41;100687.53;;;17.80;42.34
49835;BME280;35729;52.090;13.162;2023-04-22T09:29:15;100674.88;;;17.85;42.40
49835;BME280;35729;52.090;13.162;2023-04-22T09:31:47;100675.44;;;17.92;41.11
49835;BME280;35729;52.090;13.162;2023-04-22T09:34:15;100678.47;;;18.02;41.33
49835;BME280;35729;52.090;13.162;2023-04-22T09:36:44;100674.44;;;18.11;41.20
49835;BME280;35729;52.090;13.162;2023-04-22T09:39:13;100666.84;;;18.20;41.04
49835;BME280;35729;52.090;13.162;2023-04-22T09:41:42;100662.03;;;18.27;40.19
49835;BME280;35729;52.090;13.162;2023-04-22T09:44:15;100662.31;;;18.38;39.34
49835;BME280;35729;52.090;13.162;2023-04-22T09:46:48;100660.09;;;18.47;38.48
49835;BME280;35729;52.090;13.162;2023-04-22T09:49:17;100656.16;;;18.54;38.77
49835;BME280;35729;52.090;13.162;2023-04-22T09:51:45;100651.44;;;18.59;39.06
49835;BME280;35729;52.090;13.162;2023-04-22T09:54:14;100642.25;;;18.65;39.03
49835;BME280;35729;52.090;13.162;2023-04-22T09:56:45;100648.13;;;18.70;38.63
49835;BME280;35729;52.090;13.162;2023-04-22T09:59:18;100643.50;;;18.73;36.88
49835;BME280;35729;52.090;13.162;2023-04-22T10:01:50;100634.41;;;18.78;38.18
49835;BME280;35729;52.090;13.162;2023-04-22T10:04:19;100642.22;;;18.81;37.80
49835;BME280;35729;52.090;13.162;2023-04-22T10:06:50;100633.88;;;18.87;37.91
49835;BME280;35729;52.090;13.162;2023-04-22T10:09:19;100626.53;;;18.92;37.61
49835;BME280;35729;52.090;13.162;2023-04-22T10:11:50;100626.06;;;19.00;37.07
49835;BME280;35729;52.090;13.162;2023-04-22T10:14:21;100624.69;;;19.09;35.88
49835;BME280;35729;52.090;13.162;2023-04-22T10:16:55;100616.16;;;19.18;36.04
49835;BME280;35729;52.090;13.162;2023-04-22T10:19:25;100618.06;;;19.30;36.04
49835;BME280;35729;52.090;13.162;2023-04-22T10:21:56;100622.81;;;19.40;36.16
49835;BME280;35729;52.090;13.162;2023-04-22T10:24:26;100619.78;;;19.46;35.36
49835;BME280;35729;52.090;13.162;2023-04-22T10:26:57;100614.00;;;19.53;35.87
49835;BME280;35729;52.090;13.162;2023-04-22T10:29:36;100620.75;;;19.59;34.41
49835;BME280;35729;52.090;13.162;2023-04-22T10:32:23;100614.13;;;19.66;34.89
49835;BME280;35729;52.090;13.162;2023-04-22T10:35:07;100605.72;;;19.73;35.06
49835;BME280;35729;52.090;13.162;2023-04-22T10:37:36;100612.47;;;19.78;33.82
49835;BME280;35729;52.090;13.162;2023-04-22T10:40:14;100604.16;;;19.84;35.03
49835;BME280;35729;52.090;13.162;2023-04-22T10:42:51;100607.47;;;19.88;35.00
49835;BME280;35729;52.090;13.162;2023-04-22T10:45:25;100599.28;;;19.91;34.16
49835;BME280;35729;52.090;13.162;2023-04-22T10:47:53;100597.28;;;19.95;34.00
49835;BME280;35729;52.090;13.162;2023-04-22T10:50:23;100600.63;;;19.98;34.20
49835;BME280;35729;52.090;13.162;2023-04-22T10:52:54;100591.47;;;20.02;33.96
49835;BME280;35729;52.090;13.162;2023-04-22T10:55:24;100590.13;;;20.10;33.55
49835;BME280;35729;52.090;13.162;2023-04-22T10:57:53;100585.34;;;20.15;33.44
49835;BME280;35729;52.090;13.162;2023-04-22T11:00:42;100581.34;;;20.22;32.27
49835;BME280;35729;52.090;13.162;2023-04-22T11:03:15;100580.09;;;20.28;32.01
49835;BME280;35729;52.090;13.162;2023-04-22T11:05:45;100573.31;;;20.37;32.78
49835;BME280;35729;52.090;13.162;2023-04-22T11:08:20;100575.34;;;20.46;31.94
49835;BME280;35729;52.090;13.162;2023-04-22T11:10:50;100573.03;;;20.54;31.94
49835;BME280;35729;52.090;13.162;2023-04-22T11:13:20;100569.88;;;20.62;32.43
49835;BME280;35729;52.090;13.162;2023-04-22T11:15:53;100564.88;;;20.70;31.07
49835;BME280;35729;52.090;13.162;2023-04-22T11:18:24;100565.25;;;20.78;31.59
49835;BME280;35729;52.090;13.162;2023-04-22T11:20:53;100557.78;;;20.83;31.39
49835;BME280;35729;52.090;13.162;2023-04-22T11:23:23;100560.16;;;20.88;31.24
49835;BME280;35729;52.090;13.162;2023-04-22T11:25:56;100560.56;;;20.95;31.19
49835;BME280;35729;52.090;13.162;2023-04-22T11:28:25;100558.34;;;21.02;30.51
49835;BME280;35729;52.090;13.162;2023-04-22T11:31:03;100560.81;;;21.05;30.27
49835;BME280;35729;52.090;13.162;2023-04-22T11:33:35;100553.56;;;21.07;31.18
49835;BME280;35729;52.090;13.162;2023-04-22T11:36:04;100565.06;;;21.07;30.72
49835;BME280;35729;52.090;13.162;2023-04-22T11:38:36;100563.81;;;21.13;31.22
49835;BME280;35729;52.090;13.162;2023-04-22T11:41:05;100547.69;;;21.14;31.15
49835;BME280;35729;52.090;13.162;2023-04-22T11:43:33;100548.00;;;21.23;31.02
49835;BME280;35729;52.090;13.162;2023-04-22T11:46:15;100546.50;;;21.31;29.89
49835;BME280;35729;52.090;13.162;2023-04-22T11:48:44;100543.28;;;21.39;30.36
49835;BME280;35729;52.090;13.162;2023-04-22T11:51:12;100539.00;;;21.49;30.21
49835;BME280;35729;52.090;13.162;2023-04-22T11:53:49;100538.28;;;21.60;30.13
49835;BME280;35729;52.090;13.162;2023-04-22T11:56:17;100538.13;;;21.75;29.92
49835;BME280;35729;52.090;13.162;2023-04-22T11:58:47;100540.66;;;21.89;30.10
49835;BME280;35729;52.090;13.162;2023-04-22T12:01:18;100540.50;;;22.04;30.02
49835;BME280;35729;52.090;13.162;2023-04-22T12:03:47;100533.06;;;22.20;29.00
49835;BME280;35729;52.090;13.162;2023-04-22T12:06:16;100530.44;;;22.32;28.94
49835;BME280;35729;52.090;13.162;2023-04-22T12:08:44;100526.41;;;22.50;28.88
49835;BME280;35729;52.090;13.162;2023-04-22T12:11:13;100520.91;;;22.65;28.06
49835;BME280;35729;52.090;13.162;2023-04-22T12:13:43;100524.44;;;22.76;28.66
49835;BME280;35729;52.090;13.162;2023-04-22T12:16:19;100524.34;;;22.89;27.69
49835;BME280;35729;52.090;13.162;2023-04-22T12:18:49;100522.31;;;23.04;28.45
49835;BME280;35729;52.090;13.162;2023-04-22T12:21:19;100525.38;;;23.22;28.23
49835;BME280;35729;52.090;13.162;2023-04-22T12:23:50;100517.84;;;23.39;27.48
49835;BME280;35729;52.090;13.162;2023-04-22T12:26:20;100522.97;;;23.53;27.83
49835;BME280;35729;52.090;13.162;2023-04-22T12:28:49;100515.75;;;23.65;27.76
49835;BME280;35729;52.090;13.162;2023-04-22T12:31:20;100511.81;;;23.81;26.67
49835;BME280;35729;52.090;13.162;2023-04-22T12:33:49;100519.88;;;23.92;26.69
49835;BME280;35729;52.090;13.162;2023-04-22T12:36:18;100510.69;;;24.06;26.83
49835;BME280;35729;52.090;13.162;2023-04-22T12:38:48;100511.72;;;24.26;27.20
49835;BME280;35729;52.090;13.162;2023-04-22T12:41:16;100514.72;;;24.44;26.23
49835;BME280;35729;52.090;13.162;2023-04-22T12:43:45;100524.53;;;24.55;26.24
49835;BME280;35729;52.090;13.162;2023-04-22T12:46:13;100503.38;;;24.62;25.41
49835;BME280;35729;52.090;13.162;2023-04-22T12:48:44;100501.09;;;24.68;25.68
49835;BME280;35729;52.090;13.162;2023-04-22T12:51:13;100503.75;;;24.68;25.01
49835;BME280;35729;52.090;13.162;2023-04-22T12:53:41;100500.94;;;24.70;25.32
49835;BME280;35729;52.090;13.162;2023-04-22T12:56:09;100498.47;;;24.78;25.12